Nesbit, Mississippi
Current Conditions -  °F | °C
As of 5:54 PM on Monday 24 Nov 2014 (Local Time) from KMEM Reporting Station
Few Clouds Few Clouds  
Wind Chill: 47°   Ceiling: Unl
Heat Index: 49°   Visibility: 10mi
Dew Point: 30°   Wind: 6mph
Humidity: 48%   Direction: 220°SW
Pressure: 29.97"   Gusts: NA
Location:  34.88°N, 90.01°W
Report Text: KMEM 242354Z 22005KT 10SM FEW200 09/M01 A2997 RMK AO2 SLP150 T00941011 10139 20094 51024 $
Loading
Personal Weather Stations






























Interactive Weather Map New forecast layout! Learn more

10-Day Weather Forecast

Advertisements
Track Severe Weather on mobile